createdAt,value
2022-08-03T00:00:23.005Z,1008.22
2022-08-03T00:01:23.014Z,1008.23
2022-08-03T00:02:23.021Z,1008.23
2022-08-03T00:03:22.995Z,1008.19
2022-08-03T00:04:23.018Z,1008.21
2022-08-03T00:05:22.923Z,1008.20
2022-08-03T00:06:22.931Z,1008.21
2022-08-03T00:07:22.901Z,1008.22
2022-08-03T00:08:23.023Z,1008.20
2022-08-03T00:09:22.866Z,1008.20
2022-08-03T00:10:22.870Z,1008.20
2022-08-03T00:11:22.865Z,1008.19
2022-08-03T00:12:22.830Z,1008.21
2022-08-03T00:13:22.822Z,1008.17
2022-08-03T00:14:22.802Z,1008.18
2022-08-03T00:15:22.794Z,1008.17
2022-08-03T00:16:22.769Z,1008.13
2022-08-03T00:17:22.784Z,1008.15
2022-08-03T00:18:22.746Z,1008.13
2022-08-03T00:19:22.759Z,1008.14
2022-08-03T00:20:22.730Z,1008.10
2022-08-03T00:21:22.717Z,1008.10
2022-08-03T00:22:22.696Z,1008.09
2022-08-03T00:23:22.698Z,1008.08
2022-08-03T00:24:22.703Z,1008.04
2022-08-03T00:25:22.717Z,1008.03
2022-08-03T00:26:22.643Z,1008.05
2022-08-03T00:27:22.641Z,1008.03
2022-08-03T00:28:22.676Z,1008.07
2022-08-03T00:29:22.611Z,1008.00
2022-08-03T00:30:22.592Z,1007.98
2022-08-03T00:31:40.078Z,1008.04
2022-08-03T00:32:22.606Z,1008.05
2022-08-03T00:33:22.559Z,1008.06
2022-08-03T00:34:36.408Z,1008.07
2022-08-03T00:35:36.446Z,1008.03
2022-08-03T00:36:22.527Z,1008.05
2022-08-03T00:37:22.519Z,1008.08
2022-08-03T00:38:22.515Z,1008.08
2022-08-03T00:39:22.476Z,1008.06
2022-08-03T00:40:22.548Z,1008.06
2022-08-03T00:41:22.465Z,1008.04
2022-08-03T00:42:22.461Z,1008.04
2022-08-03T00:43:22.433Z,1008.05
2022-08-03T00:44:22.404Z,1007.99
2022-08-03T00:45:22.477Z,1008.05
2022-08-03T00:46:22.569Z,1008.03
2022-08-03T00:47:22.406Z,1007.98
2022-08-03T00:48:33.401Z,1007.98
2022-08-03T00:49:22.403Z,1007.98
2022-08-03T00:50:22.338Z,1007.97
2022-08-03T00:51:22.326Z,1007.96
2022-08-03T00:52:22.496Z,1007.93
2022-08-03T00:53:22.298Z,1007.99
2022-08-03T00:54:22.272Z,1007.99
2022-08-03T00:55:22.271Z,1007.95
2022-08-03T00:56:22.248Z,1008.03
2022-08-03T00:57:22.280Z,1008.03
2022-08-03T00:58:22.236Z,1007.99
2022-08-03T00:59:22.205Z,1007.96
2022-08-03T01:00:22.841Z,1007.95
2022-08-03T01:01:22.299Z,1007.96
2022-08-03T01:02:22.163Z,1007.96
2022-08-03T01:03:22.167Z,1007.92
2022-08-03T01:04:22.141Z,1007.94
2022-08-03T01:05:22.135Z,1007.95
2022-08-03T01:06:22.121Z,1007.92
2022-08-03T01:07:22.109Z,1007.94
2022-08-03T01:08:22.133Z,1007.94
2022-08-03T01:09:22.091Z,1007.96
2022-08-03T01:10:22.097Z,1007.92
2022-08-03T01:11:22.067Z,1007.94
2022-08-03T01:12:22.025Z,1007.96
2022-08-03T01:14:04.038Z,1007.97
2022-08-03T01:14:22.993Z,1007.98
2022-08-03T01:15:21.996Z,1007.93
2022-08-03T01:16:21.977Z,1007.90
2022-08-03T01:17:21.970Z,1007.91
2022-08-03T01:18:21.947Z,1007.91
2022-08-03T01:19:21.954Z,1007.92
2022-08-03T01:20:21.935Z,1007.91
2022-08-03T01:21:21.931Z,1007.91
2022-08-03T01:22:21.902Z,1007.92
2022-08-03T01:23:21.895Z,1007.91
2022-08-03T01:24:21.873Z,1007.90
2022-08-03T01:25:21.872Z,1007.95
2022-08-03T01:26:21.843Z,1007.93
2022-08-03T01:27:21.827Z,1007.92
2022-08-03T01:28:21.820Z,1007.92
2022-08-03T01:29:21.807Z,1007.90
2022-08-03T01:30:21.786Z,1007.91
2022-08-03T01:31:21.816Z,1007.91
2022-08-03T01:32:58.772Z,1007.95
2022-08-03T01:33:21.779Z,1007.93
2022-08-03T01:34:21.736Z,1007.91
2022-08-03T01:35:21.731Z,1007.91
2022-08-03T01:36:21.721Z,1007.93
2022-08-03T01:37:21.716Z,1007.93
2022-08-03T01:38:23.478Z,1007.92
2022-08-03T01:39:21.666Z,1007.92
2022-08-03T01:40:21.677Z,1007.94
2022-08-03T01:41:21.644Z,1007.90
2022-08-03T01:42:21.633Z,1007.91
2022-08-03T01:44:26.609Z,1007.88
2022-08-03T01:44:34.854Z,1007.88
2022-08-03T01:45:21.592Z,1007.84
2022-08-03T01:46:21.578Z,1007.89
2022-08-03T01:47:21.568Z,1007.85
2022-08-03T01:48:21.555Z,1007.90
2022-08-03T01:49:21.594Z,1007.90
2022-08-03T01:50:21.521Z,1007.85
2022-08-03T01:51:21.513Z,1007.88
2022-08-03T01:52:21.492Z,1007.85
2022-08-03T01:53:21.481Z,1007.85
2022-08-03T01:54:21.460Z,1007.85
2022-08-03T01:55:21.460Z,1007.86
2022-08-03T01:56:21.440Z,1007.84
2022-08-03T01:57:21.449Z,1007.85
2022-08-03T01:58:21.420Z,1007.81
2022-08-03T01:59:21.404Z,1007.79
2022-08-03T02:00:21.410Z,1007.78
2022-08-03T02:01:21.446Z,1007.78
2022-08-03T02:02:32.895Z,1007.78
2022-08-03T02:03:21.365Z,1007.80
2022-08-03T02:04:21.327Z,1007.81
2022-08-03T02:05:21.333Z,1007.80
2022-08-03T02:07:01.100Z,1007.82
2022-08-03T02:07:21.296Z,1007.82
2022-08-03T02:08:21.307Z,1007.83
2022-08-03T02:09:21.289Z,1007.88
2022-08-03T02:10:34.248Z,1007.83
2022-08-03T02:11:21.254Z,1007.87
2022-08-03T02:12:21.239Z,1007.85
2022-08-03T02:13:21.222Z,1007.85
2022-08-03T02:14:21.190Z,1007.83
2022-08-03T02:15:21.198Z,1007.84
2022-08-03T02:16:21.164Z,1007.82
2022-08-03T02:17:39.349Z,1007.86
2022-08-03T02:18:21.176Z,1007.83
2022-08-03T02:19:21.130Z,1007.80
2022-08-03T02:20:21.126Z,1007.83
2022-08-03T02:21:21.155Z,1007.85
2022-08-03T02:22:21.121Z,1007.87
2022-08-03T02:23:21.090Z,1007.83
2022-08-03T02:24:21.060Z,1007.82
2022-08-03T02:25:21.043Z,1007.84
2022-08-03T02:26:21.063Z,1007.85
2022-08-03T02:27:21.028Z,1007.83
2022-08-03T02:28:21.043Z,1007.86
2022-08-03T02:29:20.999Z,1007.85
2022-08-03T02:30:21.019Z,1007.82
2022-08-03T02:31:20.977Z,1007.83
2022-08-03T02:32:20.954Z,1007.83
2022-08-03T02:33:20.942Z,1007.80
2022-08-03T02:34:20.939Z,1007.85
2022-08-03T02:35:20.940Z,1007.82
2022-08-03T02:36:20.972Z,1007.83
2022-08-03T02:37:20.880Z,1007.81
2022-08-03T02:38:20.872Z,1007.86
2022-08-03T02:39:20.861Z,1007.86
2022-08-03T02:40:20.832Z,1007.87
2022-08-03T02:41:20.836Z,1007.85
2022-08-03T02:42:20.811Z,1007.85
2022-08-03T02:43:20.803Z,1007.84
2022-08-03T02:44:20.788Z,1007.82
2022-08-03T02:45:20.766Z,1007.83
2022-08-03T02:46:20.748Z,1007.80
2022-08-03T02:47:20.747Z,1007.86
2022-08-03T02:48:20.726Z,1007.81
2022-08-03T02:49:40.478Z,1007.79
2022-08-03T02:50:20.795Z,1007.83
2022-08-03T02:51:20.691Z,1007.83
2022-08-03T02:52:20.665Z,1007.77
2022-08-03T02:53:20.707Z,1007.83
2022-08-03T02:54:20.666Z,1007.78
2022-08-03T02:55:20.639Z,1007.80
2022-08-03T02:56:20.612Z,1007.78
2022-08-03T02:57:20.603Z,1007.80
2022-08-03T02:58:20.590Z,1007.80
2022-08-03T02:59:20.586Z,1007.80
2022-08-03T03:00:28.250Z,1007.75
2022-08-03T03:01:20.607Z,1007.78
2022-08-03T03:02:20.538Z,1007.76
2022-08-03T03:03:20.521Z,1007.75
2022-08-03T03:04:20.977Z,1007.75
2022-08-03T03:05:55.449Z,1007.75
2022-08-03T03:06:20.499Z,1007.75
2022-08-03T03:07:20.469Z,1007.74
2022-08-03T03:08:20.653Z,1007.75
2022-08-03T03:09:20.458Z,1007.77
2022-08-03T03:10:20.427Z,1007.79
2022-08-03T03:11:20.408Z,1007.74
2022-08-03T03:12:20.395Z,1007.78
2022-08-03T03:13:20.377Z,1007.76
2022-08-03T03:14:33.918Z,1007.71
2022-08-03T03:15:20.372Z,1007.73
2022-08-03T03:16:20.334Z,1007.74
2022-08-03T03:17:20.328Z,1007.76
2022-08-03T03:18:22.896Z,1007.79
2022-08-03T03:19:20.320Z,1007.81
2022-08-03T03:20:26.751Z,1007.78
2022-08-03T03:21:20.344Z,1007.79
2022-08-03T03:22:20.440Z,1007.78
2022-08-03T03:23:20.254Z,1007.80
2022-08-03T03:24:20.249Z,1007.80
2022-08-03T03:25:20.225Z,1007.77
2022-08-03T03:26:20.230Z,1007.79
2022-08-03T03:27:20.209Z,1007.78
2022-08-03T03:28:20.187Z,1007.82
2022-08-03T03:29:20.191Z,1007.81
2022-08-03T03:30:20.150Z,1007.80
2022-08-03T03:31:20.149Z,1007.81
2022-08-03T03:32:20.125Z,1007.77
2022-08-03T03:33:20.114Z,1007.76
2022-08-03T03:34:20.177Z,1007.77
2022-08-03T03:35:20.092Z,1007.79
2022-08-03T03:36:20.071Z,1007.81
2022-08-03T03:37:20.059Z,1007.82
2022-08-03T03:38:20.049Z,1007.80
2022-08-03T03:39:20.036Z,1007.82
2022-08-03T03:40:20.027Z,1007.79
2022-08-03T03:41:20.020Z,1007.82
2022-08-03T03:42:19.989Z,1007.90
2022-08-03T03:43:19.980Z,1007.85
2022-08-03T03:44:19.995Z,1007.81
2022-08-03T03:45:19.968Z,1007.83
2022-08-03T03:46:19.931Z,1007.81
2022-08-03T03:47:32.593Z,1007.82
2022-08-03T03:48:19.912Z,1007.87
2022-08-03T03:49:19.916Z,1007.85
2022-08-03T03:50:19.898Z,1007.85
2022-08-03T03:51:19.868Z,1007.87
2022-08-03T03:52:19.847Z,1007.87
2022-08-03T03:53:19.849Z,1007.87
2022-08-03T03:54:19.824Z,1007.84
2022-08-03T03:55:19.820Z,1007.83
2022-08-03T03:56:19.795Z,1007.88
2022-08-03T03:57:19.793Z,1007.83
2022-08-03T03:58:19.772Z,1007.82
2022-08-03T03:59:19.769Z,1007.80
2022-08-03T04:00:19.767Z,1007.82
2022-08-03T04:01:19.767Z,1007.82
2022-08-03T04:02:19.713Z,1007.82
2022-08-03T04:03:19.744Z,1007.81
2022-08-03T04:04:19.681Z,1007.85
2022-08-03T04:05:19.693Z,1007.86
2022-08-03T04:06:19.655Z,1007.83
2022-08-03T04:07:19.654Z,1007.83
2022-08-03T04:08:19.666Z,1007.84
2022-08-03T04:09:19.615Z,1007.85
2022-08-03T04:10:19.750Z,1007.87
2022-08-03T04:11:19.593Z,1007.85
2022-08-03T04:12:19.635Z,1007.90
2022-08-03T04:13:19.634Z,1007.86
2022-08-03T04:14:19.584Z,1007.89
2022-08-03T04:15:19.554Z,1007.90
2022-08-03T04:16:19.537Z,1007.96
2022-08-03T04:17:19.535Z,1007.93
2022-08-03T04:18:19.504Z,1007.89
2022-08-03T04:19:23.114Z,1007.88
2022-08-03T04:20:19.553Z,1007.90
2022-08-03T04:21:19.519Z,1007.90
2022-08-03T04:22:19.448Z,1007.88
2022-08-03T04:23:19.484Z,1007.87
2022-08-03T04:24:19.434Z,1007.88
2022-08-03T04:25:19.423Z,1007.91
2022-08-03T04:26:19.405Z,1007.92
2022-08-03T04:27:19.404Z,1007.93
2022-08-03T04:28:30.724Z,1007.88
2022-08-03T04:29:19.363Z,1007.88
2022-08-03T04:30:19.451Z,1007.92
2022-08-03T04:31:19.335Z,1007.88
2022-08-03T04:32:19.499Z,1007.87
2022-08-03T04:33:19.309Z,1007.86
2022-08-03T04:34:19.428Z,1007.86
2022-08-03T04:35:19.315Z,1007.90
2022-08-03T04:36:19.279Z,1007.81
2022-08-03T04:37:19.310Z,1007.87
2022-08-03T04:38:19.248Z,1007.87
2022-08-03T04:39:19.264Z,1007.85
2022-08-03T04:40:19.241Z,1007.89
2022-08-03T04:41:19.207Z,1007.85
2022-08-03T04:42:19.485Z,1007.88
2022-08-03T04:43:19.210Z,1007.87
2022-08-03T04:44:19.176Z,1007.88
2022-08-03T04:45:19.171Z,1007.86
2022-08-03T04:46:19.149Z,1007.86
2022-08-03T04:47:19.151Z,1007.89
2022-08-03T04:48:19.151Z,1007.90
2022-08-03T04:49:19.163Z,1007.89
2022-08-03T04:50:21.579Z,1007.89
2022-08-03T04:51:19.084Z,1007.88
2022-08-03T04:52:19.067Z,1007.97
2022-08-03T04:53:19.550Z,1007.96
2022-08-03T04:54:19.120Z,1007.90
2022-08-03T04:55:19.089Z,1007.91
2022-08-03T04:56:19.190Z,1007.91
2022-08-03T04:57:22.199Z,1007.98
2022-08-03T04:58:19.058Z,1007.94
2022-08-03T04:59:18.979Z,1007.91
2022-08-03T05:00:19.008Z,1007.91
2022-08-03T05:01:19.085Z,1007.92
2022-08-03T05:02:19.146Z,1007.96
2022-08-03T05:03:23.553Z,1007.94
2022-08-03T05:04:18.947Z,1007.95
2022-08-03T05:05:18.917Z,1007.98
2022-08-03T05:06:18.922Z,1008.00
2022-08-03T05:07:24.103Z,1007.96
2022-08-03T05:08:20.585Z,1008.01
2022-08-03T05:09:25.924Z,1008.00
2022-08-03T05:10:18.906Z,1008.03
2022-08-03T05:11:18.847Z,1008.05
2022-08-03T05:12:18.812Z,1008.02
2022-08-03T05:13:18.790Z,1007.98
2022-08-03T05:14:18.799Z,1008.04
2022-08-03T05:15:18.842Z,1008.08
2022-08-03T05:16:18.829Z,1008.06
2022-08-03T05:17:18.764Z,1008.02
2022-08-03T05:18:18.739Z,1008.02
2022-08-03T05:19:18.743Z,1008.01
2022-08-03T05:20:19.077Z,1008.02
2022-08-03T05:21:18.765Z,1008.05
2022-08-03T05:22:18.724Z,1008.00
2022-08-03T05:23:18.667Z,1008.00
2022-08-03T05:24:18.687Z,1008.02
2022-08-03T05:25:20.590Z,1008.02
2022-08-03T05:26:18.691Z,1008.00
2022-08-03T05:27:18.687Z,1007.98
2022-08-03T05:28:18.598Z,1008.00
2022-08-03T05:29:18.585Z,1008.00
2022-08-03T05:30:30.811Z,1007.96
2022-08-03T05:31:18.601Z,1007.97
2022-08-03T05:32:18.884Z,1007.95
2022-08-03T05:33:18.533Z,1007.99
2022-08-03T05:34:18.631Z,1007.86
2022-08-03T05:36:00.477Z,1007.92
2022-08-03T05:36:18.539Z,1007.90
2022-08-03T05:37:18.573Z,1007.94
2022-08-03T05:38:24.079Z,1007.94
2022-08-03T05:39:18.482Z,1007.91
2022-08-03T05:40:18.443Z,1007.92
2022-08-03T05:41:21.755Z,1007.93
2022-08-03T05:42:18.533Z,1007.96
2022-08-03T05:43:18.402Z,1007.93
2022-08-03T05:44:18.419Z,1007.93
2022-08-03T05:45:18.447Z,1007.98
2022-08-03T05:46:18.416Z,1007.96
2022-08-03T05:47:18.347Z,1007.96
2022-08-03T05:48:18.338Z,1007.94
2022-08-03T05:49:18.925Z,1007.98
2022-08-03T05:50:18.364Z,1007.95
2022-08-03T05:51:18.318Z,1007.98
2022-08-03T05:52:18.379Z,1008.00
2022-08-03T05:53:18.264Z,1007.99
2022-08-03T05:54:18.348Z,1007.96
2022-08-03T05:55:18.269Z,1008.01
2022-08-03T05:56:18.299Z,1008.01
2022-08-03T05:57:18.216Z,1007.98
2022-08-03T05:58:18.193Z,1008.03
2022-08-03T05:59:37.636Z,1008.00
2022-08-03T06:00:18.187Z,1008.01
2022-08-03T06:01:18.289Z,1008.00
2022-08-03T06:02:18.374Z,1007.97
2022-08-03T06:03:18.124Z,1007.96
2022-08-03T06:04:18.113Z,1007.97
2022-08-03T06:05:18.104Z,1008.00
2022-08-03T06:06:18.096Z,1008.00
2022-08-03T06:07:18.075Z,1007.99
2022-08-03T06:08:18.066Z,1008.02
2022-08-03T06:09:18.047Z,1008.01
2022-08-03T06:10:37.165Z,1008.01
2022-08-03T06:11:18.046Z,1008.03
2022-08-03T06:12:18.344Z,1008.02
2022-08-03T06:13:18.017Z,1008.02
2022-08-03T06:14:17.996Z,1008.03
2022-08-03T06:15:18.007Z,1008.01
2022-08-03T06:16:17.992Z,1008.02
2022-08-03T06:17:17.971Z,1008.00
2022-08-03T06:18:17.937Z,1007.99
2022-08-03T06:19:17.952Z,1007.97
2022-08-03T06:20:17.913Z,1008.03
2022-08-03T06:21:17.891Z,1007.95
2022-08-03T06:22:18.216Z,1008.01
2022-08-03T06:23:18.738Z,1007.99
2022-08-03T06:24:17.868Z,1007.99
2022-08-03T06:25:17.855Z,1007.98
2022-08-03T06:26:17.847Z,1007.96
2022-08-03T06:27:17.813Z,1007.98
2022-08-03T06:28:51.716Z,1008.01
2022-08-03T06:29:17.804Z,1008.01
2022-08-03T06:30:21.094Z,1008.01
2022-08-03T06:31:17.767Z,1008.01
2022-08-03T06:32:17.919Z,1008.02
2022-08-03T06:33:17.733Z,1008.05
2022-08-03T06:34:34.096Z,1008.01
2022-08-03T06:35:17.724Z,1008.03
2022-08-03T06:36:17.695Z,1007.99
2022-08-03T06:37:17.693Z,1007.99
2022-08-03T06:38:17.688Z,1008.03
2022-08-03T06:39:17.659Z,1008.03
2022-08-03T06:40:24.332Z,1008.08
2022-08-03T06:41:17.628Z,1008.01
2022-08-03T06:42:18.082Z,1008.03
2022-08-03T06:43:17.605Z,1008.04
2022-08-03T06:44:17.626Z,1008.03
2022-08-03T06:45:17.578Z,1007.97
2022-08-03T06:46:17.581Z,1007.98
2022-08-03T06:47:17.568Z,1007.98
2022-08-03T06:48:17.543Z,1007.94
2022-08-03T06:49:17.628Z,1007.98
2022-08-03T06:50:20.668Z,1007.93
2022-08-03T06:51:17.522Z,1007.90
2022-08-03T06:52:17.538Z,1007.97
2022-08-03T06:53:19.732Z,1007.96
2022-08-03T06:54:17.499Z,1007.96
2022-08-03T06:55:17.508Z,1007.97
2022-08-03T06:56:17.481Z,1007.95
2022-08-03T06:57:17.495Z,1007.95
2022-08-03T06:58:17.409Z,1007.98
2022-08-03T07:00:06.469Z,1007.97
2022-08-03T07:00:17.388Z,1007.98
2022-08-03T07:01:18.890Z,1007.98
2022-08-03T07:02:19.003Z,1008.02
2022-08-03T07:03:17.341Z,1007.98
2022-08-03T07:04:17.364Z,1008.00
2022-08-03T07:05:17.315Z,1008.02
2022-08-03T07:06:17.310Z,1008.02
2022-08-03T07:07:17.300Z,1008.01
2022-08-03T07:08:17.278Z,1008.04
2022-08-03T07:09:17.266Z,1008.00
2022-08-03T07:10:17.273Z,1008.05
2022-08-03T07:11:17.256Z,1008.02
2022-08-03T07:12:17.473Z,1008.04
2022-08-03T07:13:17.212Z,1008.02
2022-08-03T07:14:17.218Z,1008.02
2022-08-03T07:15:20.652Z,1008.01
2022-08-03T07:16:17.192Z,1008.03
2022-08-03T07:17:17.191Z,1008.04
2022-08-03T07:18:17.153Z,1008.06
2022-08-03T07:19:17.144Z,1008.08
2022-08-03T07:20:17.162Z,1008.06
2022-08-03T07:21:17.128Z,1008.09
2022-08-03T07:22:17.427Z,1008.11
2022-08-03T07:23:19.088Z,1008.14
2022-08-03T07:24:17.076Z,1008.08
2022-08-03T07:25:17.063Z,1008.16
2022-08-03T07:26:17.058Z,1008.14
2022-08-03T07:27:17.028Z,1008.14
2022-08-03T07:28:17.031Z,1008.15
2022-08-03T07:29:17.010Z,1008.15
2022-08-03T07:30:17.015Z,1008.12
2022-08-03T07:31:16.983Z,1008.09
2022-08-03T07:32:17.375Z,1008.11
2022-08-03T07:33:16.962Z,1008.15
2022-08-03T07:34:16.950Z,1008.07
2022-08-03T07:35:24.873Z,1008.12
2022-08-03T07:36:16.936Z,1008.10
2022-08-03T07:37:16.920Z,1008.11
2022-08-03T07:38:16.904Z,1008.12
2022-08-03T07:39:18.034Z,1008.16
2022-08-03T07:40:16.884Z,1008.16
2022-08-03T07:41:16.856Z,1008.14
2022-08-03T07:42:17.188Z,1008.11
2022-08-03T07:43:16.834Z,1008.13
2022-08-03T07:44:16.832Z,1008.14
2022-08-03T07:45:17.011Z,1008.12
2022-08-03T07:46:16.803Z,1008.07
2022-08-03T07:47:16.813Z,1008.10
2022-08-03T07:48:16.795Z,1008.11
2022-08-03T07:49:16.847Z,1008.09
2022-08-03T07:50:16.742Z,1008.09
2022-08-03T07:51:16.742Z,1008.06
2022-08-03T07:52:17.134Z,1008.09
2022-08-03T07:53:16.747Z,1008.12
2022-08-03T07:54:16.690Z,1008.15
2022-08-03T07:55:16.747Z,1008.11
2022-08-03T07:56:16.705Z,1008.12
2022-08-03T07:57:16.649Z,1008.13
2022-08-03T07:58:21.980Z,1008.11
2022-08-03T07:59:16.639Z,1008.10
2022-08-03T08:00:16.611Z,1008.10
2022-08-03T08:01:16.632Z,1008.09
2022-08-03T08:02:16.869Z,1008.09
2022-08-03T08:03:16.581Z,1008.12
2022-08-03T08:04:16.572Z,1008.10
2022-08-03T08:05:16.547Z,1008.12
2022-08-03T08:06:16.587Z,1008.11
2022-08-03T08:07:16.949Z,1008.06
2022-08-03T08:08:16.532Z,1008.03
2022-08-03T08:09:16.628Z,1008.07
2022-08-03T08:10:16.478Z,1008.09
2022-08-03T08:11:16.796Z,1008.08
2022-08-03T08:12:16.897Z,1008.11
2022-08-03T08:13:16.555Z,1008.10
2022-08-03T08:14:16.462Z,1008.10
2022-08-03T08:15:16.412Z,1008.10
2022-08-03T08:16:16.400Z,1008.14
2022-08-03T08:17:16.380Z,1008.15
2022-08-03T08:18:16.403Z,1008.12
2022-08-03T08:19:16.368Z,1008.11
2022-08-03T08:20:16.373Z,1008.12
2022-08-03T08:21:16.351Z,1008.13
2022-08-03T08:22:16.608Z,1008.15
2022-08-03T08:23:37.853Z,1008.14
2022-08-03T08:24:18.319Z,1008.10
2022-08-03T08:25:16.273Z,1008.04
2022-08-03T08:26:16.307Z,1008.06
2022-08-03T08:27:16.293Z,1008.07
2022-08-03T08:28:30.890Z,1008.05
2022-08-03T08:29:16.233Z,1008.05
2022-08-03T08:30:19.307Z,1008.08
2022-08-03T08:31:16.248Z,1008.08
2022-08-03T08:32:16.485Z,1008.06
2022-08-03T08:33:22.696Z,1008.09
2022-08-03T08:34:16.172Z,1008.03
2022-08-03T08:35:16.144Z,1008.04
2022-08-03T08:36:16.131Z,1008.06
2022-08-03T08:37:16.109Z,1008.04
2022-08-03T08:38:16.122Z,1007.99
2022-08-03T08:39:16.082Z,1008.04
2022-08-03T08:40:16.076Z,1008.04
2022-08-03T08:41:16.058Z,1008.03
2022-08-03T08:42:16.303Z,1007.98
2022-08-03T08:43:16.042Z,1007.99
2022-08-03T08:44:16.049Z,1007.98
2022-08-03T08:45:16.004Z,1008.01
2022-08-03T08:46:23.537Z,1007.96
2022-08-03T08:47:16.003Z,1007.97
2022-08-03T08:48:15.995Z,1007.98
2022-08-03T08:49:15.972Z,1007.97
2022-08-03T08:50:27.124Z,1007.96
2022-08-03T08:51:15.943Z,1008.00
2022-08-03T08:52:25.380Z,1008.03
2022-08-03T08:53:18.242Z,1008.05
2022-08-03T08:54:15.881Z,1008.06
2022-08-03T08:55:15.864Z,1008.07
2022-08-03T08:56:15.848Z,1008.04
2022-08-03T08:57:33.514Z,1008.02
2022-08-03T08:58:19.797Z,1008.05
2022-08-03T08:59:15.827Z,1008.07
2022-08-03T09:00:15.803Z,1008.05
2022-08-03T09:01:15.908Z,1008.02
2022-08-03T09:02:16.068Z,1008.10
2022-08-03T09:03:29.235Z,1008.09
2022-08-03T09:04:15.991Z,1008.04
2022-08-03T09:05:16.148Z,1008.10
2022-08-03T09:06:15.738Z,1008.07
2022-08-03T09:07:20.284Z,1008.07
2022-08-03T09:08:15.711Z,1008.10
2022-08-03T09:10:01.214Z,1008.07
2022-08-03T09:10:17.028Z,1008.02
2022-08-03T09:11:15.675Z,1008.06
2022-08-03T09:12:39.133Z,1008.08
2022-08-03T09:13:15.658Z,1008.01
2022-08-03T09:14:37.040Z,1008.08
2022-08-03T09:15:17.241Z,1008.06
2022-08-03T09:16:15.606Z,1008.04
2022-08-03T09:17:17.574Z,1008.03
2022-08-03T09:18:15.577Z,1008.05
2022-08-03T09:19:15.578Z,1008.00
2022-08-03T09:20:15.574Z,1008.02
2022-08-03T09:21:30.545Z,1008.00
2022-08-03T09:22:15.527Z,1007.94
2022-08-03T09:23:58.989Z,1008.01
2022-08-03T09:24:31.165Z,1008.00
2022-08-03T09:25:24.458Z,1007.98
2022-08-03T09:26:15.480Z,1007.98
2022-08-03T09:27:15.663Z,1008.02
2022-08-03T09:28:52.534Z,1007.97
2022-08-03T09:29:15.660Z,1008.01
2022-08-03T09:30:32.178Z,1007.97
2022-08-03T09:31:15.403Z,1008.03
2022-08-03T09:32:15.404Z,1008.08
2022-08-03T09:33:15.372Z,1008.05
2022-08-03T09:34:15.541Z,1008.07
2022-08-03T09:35:16.069Z,1008.05
2022-08-03T09:36:15.362Z,1008.03
2022-08-03T09:37:15.487Z,1008.08
2022-08-03T09:38:15.315Z,1008.04
2022-08-03T09:39:15.406Z,1008.00
2022-08-03T09:40:15.310Z,1007.93
2022-08-03T09:41:15.374Z,1007.97
2022-08-03T09:42:15.612Z,1007.92
2022-08-03T09:43:15.282Z,1007.95
2022-08-03T09:44:24.211Z,1007.98
2022-08-03T09:45:15.397Z,1007.96
2022-08-03T09:46:15.201Z,1007.99
2022-08-03T09:47:15.367Z,1007.97
2022-08-03T09:48:15.179Z,1007.98
2022-08-03T09:49:15.219Z,1008.00
2022-08-03T09:50:15.246Z,1008.03
2022-08-03T09:51:32.975Z,1008.00
2022-08-03T09:52:32.116Z,1008.00
2022-08-03T09:53:15.349Z,1008.08
2022-08-03T09:54:20.322Z,1008.00
2022-08-03T09:56:05.191Z,1007.97
2022-08-03T09:56:41.172Z,1008.02
2022-08-03T09:57:15.079Z,1008.01
2022-08-03T09:58:15.104Z,1008.01
2022-08-03T09:59:15.083Z,1008.02
2022-08-03T10:00:15.160Z,1008.02
2022-08-03T10:01:25.300Z,1007.98
2022-08-03T10:02:15.001Z,1007.98
2022-08-03T10:03:15.135Z,1007.96
2022-08-03T10:04:14.998Z,1007.97
2022-08-03T10:05:19.444Z,1007.96
2022-08-03T10:06:15.047Z,1007.98
2022-08-03T10:07:14.947Z,1007.95
2022-08-03T10:08:14.941Z,1007.99
2022-08-03T10:09:14.940Z,1007.95
2022-08-03T10:10:28.916Z,1007.90
2022-08-03T10:11:16.744Z,1007.90
2022-08-03T10:12:20.329Z,1007.90
2022-08-03T10:13:14.902Z,1007.94
2022-08-03T10:14:14.947Z,1007.95
2022-08-03T10:16:23.290Z,1007.93
2022-08-03T10:16:29.620Z,1007.98
2022-08-03T10:17:14.884Z,1007.99
2022-08-03T10:18:14.778Z,1007.91
2022-08-03T10:19:14.776Z,1007.93
2022-08-03T10:20:14.764Z,1007.91
2022-08-03T10:21:14.769Z,1007.91
2022-08-03T10:22:14.714Z,1007.91
2022-08-03T10:23:14.704Z,1007.89
2022-08-03T10:24:14.713Z,1007.89
2022-08-03T10:25:14.681Z,1007.95
2022-08-03T10:26:14.665Z,1007.94
2022-08-03T10:27:14.674Z,1007.92
2022-08-03T10:28:14.646Z,1007.85
2022-08-03T10:29:14.774Z,1007.81
2022-08-03T10:30:14.637Z,1007.85
2022-08-03T10:31:14.623Z,1007.82
2022-08-03T10:32:14.633Z,1007.75
2022-08-03T10:33:49.624Z,1007.78
2022-08-03T10:34:14.625Z,1007.79
2022-08-03T10:35:19.961Z,1007.78
2022-08-03T10:36:14.569Z,1007.76
2022-08-03T10:37:14.520Z,1007.75
2022-08-03T10:38:14.505Z,1007.80
2022-08-03T10:39:15.975Z,1007.76
2022-08-03T10:40:27.917Z,1007.73
2022-08-03T10:41:14.476Z,1007.66
2022-08-03T10:42:14.897Z,1007.68
2022-08-03T10:43:14.442Z,1007.66
2022-08-03T10:44:14.463Z,1007.62
2022-08-03T10:45:14.433Z,1007.71
2022-08-03T10:46:14.399Z,1007.69
2022-08-03T10:47:14.397Z,1007.66
2022-08-03T10:48:14.406Z,1007.70
2022-08-03T10:49:14.429Z,1007.67
2022-08-03T10:50:14.376Z,1007.72
2022-08-03T10:51:14.352Z,1007.69
2022-08-03T10:52:32.788Z,1007.66
2022-08-03T10:53:14.638Z,1007.70
2022-08-03T10:54:14.292Z,1007.71
2022-08-03T10:55:14.300Z,1007.66
2022-08-03T10:56:14.274Z,1007.63
2022-08-03T10:57:14.808Z,1007.58
2022-08-03T10:58:14.907Z,1007.58
2022-08-03T10:59:14.668Z,1007.62
2022-08-03T11:00:14.240Z,1007.57
2022-08-03T11:01:14.261Z,1007.57
2022-08-03T11:02:14.223Z,1007.51
2022-08-03T11:03:14.225Z,1007.50
2022-08-03T11:04:16.895Z,1007.52
2022-08-03T11:05:14.219Z,1007.55
2022-08-03T11:06:14.134Z,1007.52
2022-08-03T11:07:14.169Z,1007.51
2022-08-03T11:08:14.119Z,1007.49
2022-08-03T11:09:14.114Z,1007.48
2022-08-03T11:10:14.209Z,1007.50
2022-08-03T11:11:14.080Z,1007.52
2022-08-03T11:12:14.092Z,1007.51
2022-08-03T11:13:14.065Z,1007.51
2022-08-03T11:14:14.218Z,1007.50
2022-08-03T11:15:14.035Z,1007.46
2022-08-03T11:16:18.394Z,1007.43
2022-08-03T11:17:14.595Z,1007.44
2022-08-03T11:18:14.012Z,1007.42
2022-08-03T11:19:14.008Z,1007.42
2022-08-03T11:20:13.971Z,1007.40
2022-08-03T11:21:13.960Z,1007.43
2022-08-03T11:22:13.930Z,1007.48
2022-08-03T11:23:13.969Z,1007.42
2022-08-03T11:24:13.897Z,1007.47
2022-08-03T11:25:53.416Z,1007.52
2022-08-03T11:26:13.877Z,1007.50
2022-08-03T11:27:13.887Z,1007.55
2022-08-03T11:28:13.843Z,1007.47
2022-08-03T11:29:13.851Z,1007.48
2022-08-03T11:30:13.833Z,1007.48
2022-08-03T11:31:32.730Z,1007.44
2022-08-03T11:32:19.208Z,1007.49
2022-08-03T11:33:13.818Z,1007.34
2022-08-03T11:34:13.831Z,1007.39
2022-08-03T11:35:13.835Z,1007.34
2022-08-03T11:36:13.742Z,1007.38
2022-08-03T11:37:13.780Z,1007.40
2022-08-03T11:38:13.741Z,1007.39
2022-08-03T11:39:16.627Z,1007.33
2022-08-03T11:40:13.709Z,1007.30
2022-08-03T11:41:13.691Z,1007.35
2022-08-03T11:42:13.729Z,1007.40
2022-08-03T11:43:13.648Z,1007.41
2022-08-03T11:44:13.645Z,1007.37
2022-08-03T11:45:13.639Z,1007.40
2022-08-03T11:46:13.636Z,1007.39
2022-08-03T11:47:13.614Z,1007.38
2022-08-03T11:48:13.580Z,1007.38
2022-08-03T11:49:13.627Z,1007.40
2022-08-03T11:50:13.636Z,1007.43
2022-08-03T11:51:13.545Z,1007.31
2022-08-03T11:52:13.571Z,1007.35
2022-08-03T11:53:13.565Z,1007.30
2022-08-03T11:54:13.517Z,1007.31
2022-08-03T11:55:13.546Z,1007.36
2022-08-03T11:56:13.476Z,1007.39
2022-08-03T11:57:13.512Z,1007.34
2022-08-03T11:59:11.043Z,1007.34
2022-08-03T11:59:24.351Z,1007.32
2022-08-03T12:00:13.452Z,1007.30
2022-08-03T12:01:13.481Z,1007.39
2022-08-03T12:02:13.398Z,1007.36
2022-08-03T12:03:13.471Z,1007.38
2022-08-03T12:04:13.380Z,1007.36
2022-08-03T12:05:13.363Z,1007.36